Weather History for Sherman-Denison, TX

Change the Weather History Date:

Thursday, July 11, 2013

  Actual Average (KDFW) Record (KDFW)
Temperature  
Mean Temperature 90 °F 85 °F  
Max Temperature 100 °F 95 °F 107 °F (1980)
Min Temperature 79 °F 75 °F 59 °F (1905)
Degree Days  
Heating Degree Days 0 0  
Month to date heating degree days 0  
Since 1 June heating degree days 0  
Since 1 July heating degree days 0  
Cooling Degree Days 24 20  
Month to date cooling degree days 215  
Year to date cooling degree days 1128  
Since 1 June cooling degree days 706  
Growing Degree Days 40 (Base 50)    
Moisture  
Dew Point 66 °F    
Average Humidity 49    
Maximum Humidity 71    
Minimum Humidity 29    
Precipitation  
Precipitation 0.01 in 0.08 in 2.10 in (1973)
Month to date precipitation 0.98  
Year to date precipitation 21.02  
Sea Level Pressure  
Sea Level Pressure 29.96 in    
Wind  
Wind Speed 8 mph (SSE)    
Max Wind Speed 18 mph    
Max Gust Speed 22 mph    
Visibility 10 miles    
Events Rain , Thunderstorm    
T = Trace of Precipitation, MM = Missing Value Source: NWS Daily Summary

Daily Weather History Graph

Daily Weather History Graph

Search for Another Location

Airport:

Trip Planner

Search our weather history database for the weather conditions in past years. The results will help you decide how hot, cold, wet, or windy it might be!

Date:

Astronomy

Jul. 11, 2013 Rise Set
Actual Time 6:25 AM CDT 8:39 PM CDT
Civil Twilight 5:56 AM CDT 9:07 PM CDT
Nautical Twilight 5:21 AM CDT 9:42 PM CDT
Astronomical Twilight 4:43 AM CDT 10:20 PM CDT
Moon 9:33 AM CDT (7/11) 10:33 PM CDT (7/11)
Length of Visible Light 15h 11m
Length of Day
14h 14m
Waxing Crescent, 11% of the Moon is Illuminated
Jul 11
Waxing Crescent
Jul 15
First Quarter
Jul 22
Full
Jul 29
Last Quarter
Aug 6
New

Hourly Weather History & Observations

Time (CDT) Temp. Heat Index Dew Point Humidity Pressure Visibility Wind Dir Wind Speed Gust Speed Precip Events Conditions
12:15 AM 87.3 °F 88.6 °F 64.4 °F 46% 29.97 in 10.0 mi SSE 9.2 mph - N/A   Clear
12:35 AM 86.9 °F 88.3 °F 64.6 °F 47% 29.97 in 10.0 mi SSE 9.2 mph - N/A   Clear
12:55 AM 86.0 °F 87.6 °F 64.8 °F 49% 29.97 in 10.0 mi SSE 8.1 mph - N/A   Clear
1:15 AM 86.4 °F 87.8 °F 64.4 °F 48% 29.98 in 10.0 mi SSE 9.2 mph - N/A   Clear
1:35 AM 86.2 °F 87.6 °F 64.4 °F 48% 29.97 in 10.0 mi SSE 10.4 mph - N/A   Clear
1:55 AM 86.0 °F 87.3 °F 64.4 °F 48% 29.98 in 10.0 mi SSE 9.2 mph - N/A   Clear
2:15 AM 86.0 °F 87.6 °F 64.6 °F 49% 29.97 in 10.0 mi SSE 11.5 mph - N/A   Clear
2:35 AM 85.3 °F 86.8 °F 64.8 °F 50% 29.98 in 10.0 mi SSE 9.2 mph - N/A   Scattered Clouds
2:55 AM 84.4 °F 86.1 °F 64.9 °F 52% 29.97 in 10.0 mi South 9.2 mph - N/A   Scattered Clouds
3:15 AM 83.5 °F 85.1 °F 64.9 °F 53% 29.97 in 10.0 mi South 8.1 mph - N/A   Clear
3:35 AM 82.4 °F 84.2 °F 65.1 °F 56% 29.97 in 10.0 mi South 8.1 mph - N/A   Clear
3:55 AM 81.5 °F 83.4 °F 65.3 °F 58% 29.97 in 10.0 mi South 6.9 mph - N/A   Clear
4:15 AM 82.8 °F 84.5 °F 65.3 °F 55% 29.98 in 10.0 mi East 5.8 mph - N/A   Clear
4:35 AM 80.6 °F 82.7 °F 65.8 °F 61% 29.98 in 10.0 mi East 6.9 mph - N/A   Clear
4:55 AM 80.2 °F 82.3 °F 66.2 °F 62% 29.97 in 10.0 mi ESE 6.9 mph - N/A   Clear
5:15 AM 79.7 °F - 66.4 °F 64% 29.97 in 10.0 mi East 6.9 mph - N/A   Clear
5:35 AM 81.7 °F 83.6 °F 65.8 °F 58% 29.97 in 10.0 mi SSE 5.8 mph - N/A   Clear
5:55 AM 81.1 °F 83.2 °F 66.2 °F 60% 29.97 in 10.0 mi SSE 3.5 mph - N/A   Clear
6:15 AM 80.4 °F 82.6 °F 66.2 °F 62% 29.97 in 10.0 mi SSE 5.8 mph - N/A   Clear
6:35 AM 80.2 °F 82.5 °F 66.4 °F 63% 29.97 in 10.0 mi SSE 5.8 mph - N/A   Clear
6:55 AM 81.1 °F 83.4 °F 66.4 °F 61% 29.98 in 10.0 mi SE 8.1 mph - N/A   Clear
7:15 AM 81.5 °F 83.9 °F 66.9 °F 61% 29.98 in 10.0 mi South 4.6 mph - N/A   Clear
7:35 AM 81.0 °F 83.6 °F 67.6 °F 64% 29.99 in 10.0 mi South 4.6 mph - N/A   Clear
7:55 AM 82.2 °F 85.1 °F 68.0 °F 62% 29.99 in 10.0 mi South 4.6 mph - N/A   Clear
8:15 AM 84.0 °F 87.6 °F 68.7 °F 60% 29.99 in 10.0 mi SSW 8.1 mph - N/A   Scattered Clouds
8:35 AM 86.4 °F 90.4 °F 69.1 °F 56% 29.99 in 10.0 mi SW 10.4 mph - N/A   Clear
8:55 AM 86.9 °F 90.6 °F 68.5 °F 54% 29.99 in 10.0 mi SW 10.4 mph - N/A   Clear
9:15 AM 88.2 °F 92.1 °F 68.7 °F 52% 29.99 in 10.0 mi SW 10.4 mph - N/A   Clear
9:35 AM 89.4 °F 93.1 °F 68.2 °F 49% 29.98 in 10.0 mi SW 12.7 mph - N/A   Clear
9:55 AM 90.5 °F 94.2 °F 68.0 °F 47% 29.98 in 10.0 mi WSW 10.4 mph - N/A   Clear
10:15 AM 91.2 °F 95.0 °F 67.8 °F 46% 29.98 in 10.0 mi SW 9.2 mph - N/A   Clear
10:35 AM 91.0 °F 94.7 °F 67.5 °F 46% 29.98 in 10.0 mi SW 10.4 mph - N/A   Clear
10:55 AM 92.3 °F 96.1 °F 67.5 °F 44% 29.98 in 10.0 mi SSW 8.1 mph - N/A   Clear
11:15 AM 94.3 °F 98.2 °F 67.1 °F 41% 29.98 in 10.0 mi SW 6.9 mph - N/A   Clear
11:35 AM 95.0 °F 99.0 °F 66.9 °F 40% 29.99 in 10.0 mi SW 4.6 mph - N/A   Scattered Clouds
11:55 AM 96.4 °F 99.4 °F 65.3 °F 36% 29.98 in 10.0 mi WSW 4.6 mph - N/A   Clear
12:15 PM 96.6 °F 99.8 °F 65.3 °F 36% 29.98 in 10.0 mi WNW 5.8 mph - N/A   Clear
12:35 PM 97.3 °F 100.0 °F 64.8 °F 34% 29.97 in 10.0 mi West 8.1 mph - N/A   Clear
12:55 PM 98.1 °F 100.7 °F 64.4 °F 33% 29.97 in 10.0 mi NNW 3.5 mph - N/A   Clear
1:15 PM 98.2 °F 100.4 °F 64.0 °F 32% 29.97 in 10.0 mi SW 4.6 mph - N/A   Clear
1:35 PM 99.1 °F 101.4 °F 63.5 °F 31% 29.96 in 10.0 mi Calm Calm - N/A   Scattered Clouds
1:55 PM 98.8 °F 100.3 °F 62.4 °F 30% 29.95 in 10.0 mi SSW 5.8 mph - N/A   Scattered Clouds
2:15 PM 100.8 °F 103.0 °F 63.5 °F 29% 29.94 in 10.0 mi Calm Calm - N/A   Mostly Cloudy
2:35 PM 98.2 °F 100.4 °F 64.0 °F 32% 29.93 in 10.0 mi NE 8.1 mph - N/A   Mostly Cloudy
2:55 PM 100.4 °F 103.0 °F 63.7 °F 30% 29.93 in 10.0 mi East 3.5 mph - N/A   Mostly Cloudy
3:15 PM 98.4 °F 100.2 °F 63.0 °F 31% 29.93 in 10.0 mi Calm Calm - N/A   Mostly Cloudy
3:35 PM 97.5 °F 99.2 °F 63.5 °F 32% 29.91 in 10.0 mi NE 4.6 mph - N/A   Mostly Cloudy
3:55 PM 98.2 °F 99.9 °F 63.0 °F 31% 29.91 in 10.0 mi Calm Calm - N/A   Scattered Clouds
4:15 PM 98.2 °F 102.1 °F 66.4 °F 35% 29.91 in 10.0 mi SE 10.4 mph 18.4 mph N/A   Scattered Clouds
4:35 PM 96.4 °F 98.9 °F 64.6 °F 35% 29.91 in 10.0 mi SSE 15.0 mph - N/A   Scattered Clouds
4:55 PM 95.4 °F 98.1 °F 65.5 °F 37% 29.90 in 10.0 mi SSE 16.1 mph 21.9 mph N/A   Scattered Clouds
5:15 PM 93.6 °F 96.4 °F 66.2 °F 40% 29.90 in 10.0 mi South 13.8 mph - N/A   Clear
5:35 PM 95.2 °F 97.3 °F 64.6 °F 36% 29.90 in 10.0 mi South 12.7 mph - N/A   Clear
5:55 PM 96.1 °F 98.8 °F 65.1 °F 36% 29.89 in 10.0 mi SE 10.4 mph - N/A   Scattered Clouds
6:15 PM 96.3 °F 98.1 °F 64.0 °F 34% 29.89 in 10.0 mi South 15.0 mph - N/A   Clear
6:35 PM 93.4 °F 95.6 °F 64.8 °F 39% 29.89 in 10.0 mi South 18.4 mph 21.9 mph N/A   Clear
6:55 PM 92.3 °F 95.6 °F 66.6 °F 43% 29.90 in 10.0 mi SSE 17.3 mph - N/A   Clear
7:15 PM 91.4 °F 94.9 °F 67.3 °F 45% 29.92 in 10.0 mi SSE 16.1 mph - N/A Thunderstorm Scattered Clouds
7:35 PM 90.7 °F 94.1 °F 67.3 °F 46% 29.93 in 10.0 mi SE 13.8 mph 17.3 mph N/A   Clear
7:55 PM 89.8 °F 92.5 °F 66.6 °F 46% 29.94 in 10.0 mi SE 10.4 mph - N/A   Clear
8:15 PM 89.4 °F 91.9 °F 66.2 °F 46% 29.95 in 10.0 mi ESE 8.1 mph - N/A   Clear
8:35 PM 88.2 °F 91.3 °F 67.3 °F 50% 29.94 in 10.0 mi SE 6.9 mph - N/A Rain Light Rain
8:55 PM 84.2 °F 89.3 °F 71.1 °F 65% 29.95 in 10.0 mi East 4.6 mph - 0.01 in Rain Light Rain
9:15 PM 82.0 °F 86.7 °F 71.6 °F 71% 29.94 in 10.0 mi ESE 8.1 mph - N/A   Clear
9:35 PM 82.2 °F 86.4 °F 70.5 °F 68% 29.93 in 10.0 mi ESE 9.2 mph - N/A   Clear
9:55 PM 81.9 °F 85.6 °F 70.0 °F 67% 29.94 in 10.0 mi SSE 5.8 mph - N/A   Clear
10:15 PM 80.8 °F 84.4 °F 70.5 °F 71% 29.94 in 10.0 mi Calm Calm - N/A   Clear
10:35 PM 80.1 °F 83.2 °F 70.0 °F 71% 29.95 in 10.0 mi ESE 4.6 mph - N/A   Clear
10:55 PM 80.6 °F 83.5 °F 68.5 °F 67% 29.96 in 10.0 mi SSW 4.6 mph - N/A   Clear
11:15 PM 80.2 °F 83.0 °F 68.4 °F 67% 29.96 in 10.0 mi Calm Calm - N/A   Clear
11:35 PM 79.5 °F - 68.5 °F 69% 29.97 in 10.0 mi East 4.6 mph - N/A   Clear
11:55 PM 79.7 °F - 68.5 °F 69% 29.97 in 10.0 mi SE 4.6 mph - N/A   Clear